Austin Reinauer — WCX8055 — position and weather

sailwx.info

Track history (hours):
 
Tides and Currents Weather Stations Pressure Air Temp Water Temp Dewpoint Dewpoint Depression Visibility Wind Speed Wind Dir Waves Ship Positions

Austin Reinauer

Owner: REINAUER TRANSPORTATION CO, LP, STATEN ISLAND, NY. More information available from US FCC via Universal Licensing System and Coast Guard Vessel Documentation Center.

Last reported at 2015-Aug-31 01:32 UTC. Time now 2015-Aug-31 02:33 UTC.
Position N 40°32' W 074°15'.

Length 33 m; draft 6.7 m.

Type: Ship (hazmat cat B). MMSI: 366739920.

Date/timePositionNaut miles runAvg speedWind from/ knotsBaromVisibWave heightAir tempDewpointWater temp
2015-Aug-31 01:32N 40°32' W 074°15'0 0.0
2015-Aug-31 00:30N 40°32' W 074°15'0 0.0
2015-Aug-30 23:31N 40°32' W 074°15'0 0.0
2015-Aug-30 22:33N 40°32' W 074°15'0 0.0
2015-Aug-30 21:33N 40°32' W 074°15'0 0.0
2015-Aug-30 20:33N 40°32' W 074°15'0 0.0
2015-Aug-30 19:33N 40°32' W 074°15'0 0.0
2015-Aug-30 18:33N 40°32' W 074°15'0 0.0
2015-Aug-30 17:33N 40°32' W 074°15'0 0.0
2015-Aug-30 16:32N 40°32' W 074°15'0 0.0
2015-Aug-30 15:30N 40°32' W 074°15'0 0.0
2015-Aug-30 14:33N 40°32' W 074°15'0 0.0
2015-Aug-30 13:33N 40°32' W 074°15'0 0.0
2015-Aug-30 12:33N 40°32' W 074°15'0 0.0
2015-Aug-30 11:33N 40°32' W 074°15'0 0.0
2015-Aug-30 10:33N 40°32' W 074°15'0 0.0
2015-Aug-30 09:32N 40°32' W 074°15'0 0.0
2015-Aug-30 08:33N 40°32' W 074°15'0 0.0
2015-Aug-30 07:33N 40°32' W 074°15'0 0.0
2015-Aug-30 06:34N 40°32' W 074°15'7 6.5
2015-Aug-30 05:33N 40°38' W 074°12'7 6.9
2015-Aug-30 04:34N 40°40' W 074°03'1110.9
2015-Aug-30 03:30N 40°48' W 073°53'12 9.8
2015-Aug-30 02:19N 40°55' W 073°40'911.2
2015-Aug-30 01:33N 40°59' W 073°30'1111.4
2015-Aug-30 00:33N 41°03' W 073°16'2 0.1
2015-Aug-28 17:22N 41°03' W 073°14'810.0
2015-Aug-28 16:33N 41°00' W 073°24'12 9.3
2015-Aug-28 15:14N 40°55' W 073°38'6 8.7
2015-Aug-28 14:33N 40°52' W 073°45'7 7.0
2015-Aug-28 13:33N 40°48' W 073°53'7 7.0
2015-Aug-28 12:33N 40°43' W 073°59'5 4.7
2015-Aug-28 11:33N 40°39' W 074°03'0 0.1
2015-Aug-28 10:33N 40°39' W 074°03'0 0.1
2015-Aug-28 09:33N 40°39' W 074°03'1 0.9
2015-Aug-28 08:33N 40°39' W 074°04'6 6.4
2015-Aug-28 07:33N 40°38' W 074°12'4 2.0
2015-Aug-28 05:20N 40°33' W 074°14'0 0.0
2015-Aug-28 02:28N 40°34' W 074°14'0 0.0
2015-Aug-27 21:22N 40°33' W 074°14'6 7.7
2015-Aug-27 20:33N 40°39' W 074°10'2 1.8
2015-Aug-27 19:33N 40°38' W 074°08'0 0.0
2015-Aug-27 18:33N 40°38' W 074°08'0 0.0
2015-Aug-27 17:33N 40°38' W 074°08'4 3.9
2015-Aug-27 16:33N 40°37' W 074°12'4 0.4
2015-Aug-27 06:31N 40°33' W 074°14'2 0.5
2015-Aug-27 02:33N 40°35' W 074°13'5 5.1
2015-Aug-27 01:33N 40°39' W 074°08'5 4.9
2015-Aug-27 00:33N 40°40' W 074°02'8 7.7
2015-Aug-26 23:31N 40°47' W 073°56'7 7.2
2015-Aug-26 22:33N 40°48' W 073°47'1010.2
2015-Aug-26 21:33N 40°55' W 073°37'1110.7
2015-Aug-26 20:33N 41°00' W 073°25'1010.3
2015-Aug-26 19:33N 41°02' W 073°11'10 9.9
2015-Aug-26 18:33N 41°03' W 072°58'10 9.8
2015-Aug-26 17:33N 41°06' W 072°46'9 9.3
2015-Aug-26 16:33N 41°08' W 072°34'8 8.1
2015-Aug-26 15:33N 41°11' W 072°23'8 8.1
2015-Aug-26 14:33N 41°13' W 072°13'10 9.5
2015-Aug-26 13:33N 41°14' W 072°01'1111.0
2015-Aug-26 12:33N 41°16' W 071°46'1111.0
2015-Aug-26 11:33N 41°18' W 071°32'8 8.5
2015-Aug-26 10:33N 41°24' W 071°24'1010.3
2015-Aug-26 09:33N 41°34' W 071°19'10 9.6
2015-Aug-26 08:33N 41°43' W 071°21'3 3.3
2015-Aug-26 07:32N 41°47' W 071°22'0 0.0
2015-Aug-26 06:32N 41°47' W 071°22'0 0.0
2015-Aug-26 05:32N 41°47' W 071°22'0 0.0
2015-Aug-26 04:32N 41°47' W 071°22'0 0.0
2015-Aug-26 03:32N 41°47' W 071°22'0 0.0
2015-Aug-26 02:26N 41°47' W 071°22'0 0.0
2015-Aug-26 01:32N 41°47' W 071°22'0 0.0
2015-Aug-26 00:32N 41°47' W 071°22'0 0.0
2015-Aug-25 23:32N 41°47' W 071°22'0 0.0
2015-Aug-25 22:32N 41°47' W 071°22'0 0.0
2015-Aug-25 21:29N 41°47' W 071°22'0 0.0
2015-Aug-25 20:32N 41°47' W 071°22'0 0.0
2015-Aug-25 19:26N 41°47' W 071°22'0 0.0
2015-Aug-25 18:32N 41°47' W 071°22'1 1.3
2015-Aug-25 17:33N 41°46' W 071°23'7 6.4
2015-Aug-25 16:30N 41°40' W 071°19'7 7.8
2015-Aug-25 15:33N 41°32' W 071°20'1 1.2
2015-Aug-25 14:31N 41°31' W 071°21'0 0.1
2015-Aug-25 13:31N 41°31' W 071°21'0 0.1
2015-Aug-25 12:31N 41°31' W 071°21'0 0.1
2015-Aug-25 11:31N 41°31' W 071°21'0 0.0
2015-Aug-25 10:31N 41°31' W 071°21'0 0.0
2015-Aug-25 09:31N 41°31' W 071°21'0 0.1
2015-Aug-25 08:31N 41°31' W 071°21'0 0.1
2015-Aug-25 07:31N 41°31' W 071°21'0 0.0
2015-Aug-25 06:31N 41°31' W 071°21'0 0.1
2015-Aug-25 05:31N 41°31' W 071°21'0 0.1
2015-Aug-25 04:28N 41°31' W 071°21'0 0.0
2015-Aug-25 03:28N 41°31' W 071°21'0 0.1
2015-Aug-25 02:31N 41°31' W 071°21'0 0.0
2015-Aug-25 01:31N 41°31' W 071°21'0 0.0
2015-Aug-25 00:31N 41°31' W 071°21'0 0.0
2015-Aug-24 23:34N 41°31' W 071°21'0 0.1
2015-Aug-24 22:30N 41°31' W 071°21'0 0.1
2015-Aug-24 21:30N 41°31' W 071°21'0 0.1
2015-Aug-24 20:30N 41°31' W 071°21'0 0.0
2015-Aug-24 19:33N 41°31' W 071°21'2 2.4
2015-Aug-24 18:32N 41°29' W 071°21'10 7.9
2015-Aug-24 17:13N 41°23' W 071°10'7 9.9
2015-Aug-24 16:33N 41°26' W 071°02'43 7.0
2015-Aug-24 10:27N 42°02' W 070°30'910.4
2015-Aug-24 09:33N 42°11' W 070°34'10 9.8
2015-Aug-24 08:31N 42°18' W 070°43'9 9.2
2015-Aug-24 07:32N 42°22' W 070°54'7 6.6
2015-Aug-24 06:33N 42°22' W 071°03'0 0.0
2015-Aug-23 09:27N 42°22' W 071°03'9 6.7
2015-Aug-23 08:10N 42°23' W 070°51'41 7.3
2015-Aug-23 02:33N 41°43' W 070°39'8 8.3
2015-Aug-23 01:32N 41°35' W 070°43'8 8.5
2015-Aug-23 00:33N 41°30' W 070°52'9 8.7
2015-Aug-22 23:33N 41°26' W 071°02'9 8.9
2015-Aug-22 22:33N 41°21' W 071°12'9 9.1
2015-Aug-22 21:33N 41°18' W 071°23'9 8.8
2015-Aug-22 20:33N 41°18' W 071°35'9 8.7
2015-Aug-22 19:33N 41°16' W 071°47'8 8.1
2015-Aug-22 18:33N 41°14' W 071°57'8 7.7
2015-Aug-22 17:33N 41°14' W 072°07'8 8.5
2015-Aug-22 16:33N 41°12' W 072°18'9 9.2
2015-Aug-22 15:33N 41°09' W 072°30'9 9.2
2015-Aug-22 14:33N 41°06' W 072°41'9 9.3
2015-Aug-22 13:33N 41°04' W 072°53'9 9.4
2015-Aug-22 12:33N 41°02' W 073°05'9 9.4
2015-Aug-22 11:33N 41°01' W 073°18'9 9.3
2015-Aug-22 10:33N 40°58' W 073°30'9 8.9
2015-Aug-22 09:33N 40°54' W 073°40'8 8.2
2015-Aug-22 08:33N 40°48' W 073°47'7 7.2
2015-Aug-22 07:33N 40°46' W 073°57'8 8.5
2015-Aug-22 06:33N 40°40' W 074°03'7 7.3
2015-Aug-22 05:33N 40°37' W 074°12'4 3.9
2015-Aug-22 04:32N 40°34' W 074°14'0 0.0
2015-Aug-21 22:15N 40°33' W 074°14'6 8.3
2015-Aug-21 21:33N 40°39' W 074°11'3 0.6
2015-Aug-21 17:19N 40°38' W 074°08'5 6.8
2015-Aug-21 16:32N 40°35' W 074°13'2 0.1
2015-Aug-21 04:29N 40°34' W 074°14'0 0.1
2015-Aug-21 03:27N 40°34' W 074°14'5 5.1
2015-Aug-21 02:33N 40°38' W 074°12'9 8.7
2015-Aug-21 01:33N 40°41' W 074°01'  
Track history (hours):
 
Tides and Currents Weather Stations Pressure Air Temp Water Temp Dewpoint Dewpoint Depression Visibility Wind Speed Wind Dir Waves Ship Positions

Austin Reinauer

Owner: REINAUER TRANSPORTATION CO, LP, STATEN ISLAND, NY. More information available from US FCC via Universal Licensing System and Coast Guard Vessel Documentation Center.

Last reported at 2015-Aug-31 01:32 UTC. Time now 2015-Aug-31 02:33 UTC.
Position N 40°32' W 074°15'.

Length 33 m; draft 6.7 m.

Type: Ship (hazmat cat B). MMSI: 366739920.

Date/timePositionNaut miles runAvg speedWind from/ knotsBaromVisibWave heightAir tempDewpointWater temp
2015-Aug-31 01:32N 40°32' W 074°15'0 0.0
2015-Aug-31 00:30N 40°32' W 074°15'0 0.0
2015-Aug-30 23:31N 40°32' W 074°15'0 0.0
2015-Aug-30 22:33N 40°32' W 074°15'0 0.0
2015-Aug-30 21:33N 40°32' W 074°15'0 0.0
2015-Aug-30 20:33N 40°32' W 074°15'0 0.0
2015-Aug-30 19:33N 40°32' W 074°15'0 0.0
2015-Aug-30 18:33N 40°32' W 074°15'0 0.0
2015-Aug-30 17:33N 40°32' W 074°15'0 0.0
2015-Aug-30 16:32N 40°32' W 074°15'0 0.0
2015-Aug-30 15:30N 40°32' W 074°15'0 0.0
2015-Aug-30 14:33N 40°32' W 074°15'0 0.0
2015-Aug-30 13:33N 40°32' W 074°15'0 0.0
2015-Aug-30 12:33N 40°32' W 074°15'0 0.0
2015-Aug-30 11:33N 40°32' W 074°15'0 0.0
2015-Aug-30 10:33N 40°32' W 074°15'0 0.0
2015-Aug-30 09:32N 40°32' W 074°15'0 0.0
2015-Aug-30 08:33N 40°32' W 074°15'0 0.0
2015-Aug-30 07:33N 40°32' W 074°15'0 0.0
2015-Aug-30 06:34N 40°32' W 074°15'7 6.5
2015-Aug-30 05:33N 40°38' W 074°12'7 6.9
2015-Aug-30 04:34N 40°40' W 074°03'1110.9
2015-Aug-30 03:30N 40°48' W 073°53'12 9.8
2015-Aug-30 02:19N 40°55' W 073°40'911.2
2015-Aug-30 01:33N 40°59' W 073°30'1111.4
2015-Aug-30 00:33N 41°03' W 073°16'2 0.1
2015-Aug-28 17:22N 41°03' W 073°14'810.0
2015-Aug-28 16:33N 41°00' W 073°24'12 9.3
2015-Aug-28 15:14N 40°55' W 073°38'6 8.7
2015-Aug-28 14:33N 40°52' W 073°45'7 7.0
2015-Aug-28 13:33N 40°48' W 073°53'7 7.0
2015-Aug-28 12:33N 40°43' W 073°59'5 4.7
2015-Aug-28 11:33N 40°39' W 074°03'0 0.1
2015-Aug-28 10:33N 40°39' W 074°03'0 0.1
2015-Aug-28 09:33N 40°39' W 074°03'1 0.9
2015-Aug-28 08:33N 40°39' W 074°04'6 6.4
2015-Aug-28 07:33N 40°38' W 074°12'4 2.0
2015-Aug-28 05:20N 40°33' W 074°14'0 0.0
2015-Aug-28 02:28N 40°34' W 074°14'0 0.0
2015-Aug-27 21:22N 40°33' W 074°14'6 7.7
2015-Aug-27 20:33N 40°39' W 074°10'2 1.8
2015-Aug-27 19:33N 40°38' W 074°08'0 0.0
2015-Aug-27 18:33N 40°38' W 074°08'0 0.0
2015-Aug-27 17:33N 40°38' W 074°08'4 3.9
2015-Aug-27 16:33N 40°37' W 074°12'4 0.4
2015-Aug-27 06:31N 40°33' W 074°14'2 0.5
2015-Aug-27 02:33N 40°35' W 074°13'5 5.1
2015-Aug-27 01:33N 40°39' W 074°08'5 4.9
2015-Aug-27 00:33N 40°40' W 074°02'8 7.7
2015-Aug-26 23:31N 40°47' W 073°56'7 7.2
2015-Aug-26 22:33N 40°48' W 073°47'1010.2
2015-Aug-26 21:33N 40°55' W 073°37'1110.7
2015-Aug-26 20:33N 41°00' W 073°25'1010.3
2015-Aug-26 19:33N 41°02' W 073°11'10 9.9
2015-Aug-26 18:33N 41°03' W 072°58'10 9.8
2015-Aug-26 17:33N 41°06' W 072°46'9 9.3
2015-Aug-26 16:33N 41°08' W 072°34'8 8.1
2015-Aug-26 15:33N 41°11' W 072°23'8 8.1
2015-Aug-26 14:33N 41°13' W 072°13'10 9.5
2015-Aug-26 13:33N 41°14' W 072°01'1111.0
2015-Aug-26 12:33N 41°16' W 071°46'1111.0
2015-Aug-26 11:33N 41°18' W 071°32'8 8.5
2015-Aug-26 10:33N 41°24' W 071°24'1010.3
2015-Aug-26 09:33N 41°34' W 071°19'10 9.6
2015-Aug-26 08:33N 41°43' W 071°21'3 3.3
2015-Aug-26 07:32N 41°47' W 071°22'0 0.0
2015-Aug-26 06:32N 41°47' W 071°22'0 0.0
2015-Aug-26 05:32N 41°47' W 071°22'0 0.0
2015-Aug-26 04:32N 41°47' W 071°22'0 0.0
2015-Aug-26 03:32N 41°47' W 071°22'0 0.0
2015-Aug-26 02:26N 41°47' W 071°22'0 0.0
2015-Aug-26 01:32N 41°47' W 071°22'0 0.0
2015-Aug-26 00:32N 41°47' W 071°22'0 0.0
2015-Aug-25 23:32N 41°47' W 071°22'0 0.0
2015-Aug-25 22:32N 41°47' W 071°22'0 0.0
2015-Aug-25 21:29N 41°47' W 071°22'0 0.0
2015-Aug-25 20:32N 41°47' W 071°22'0 0.0
2015-Aug-25 19:26N 41°47' W 071°22'0 0.0
2015-Aug-25 18:32N 41°47' W 071°22'1 1.3
2015-Aug-25 17:33N 41°46' W 071°23'7 6.4
2015-Aug-25 16:30N 41°40' W 071°19'7 7.8
2015-Aug-25 15:33N 41°32' W 071°20'1 1.2
2015-Aug-25 14:31N 41°31' W 071°21'0 0.1
2015-Aug-25 13:31N 41°31' W 071°21'0 0.1
2015-Aug-25 12:31N 41°31' W 071°21'0 0.1
2015-Aug-25 11:31N 41°31' W 071°21'0 0.0
2015-Aug-25 10:31N 41°31' W 071°21'0 0.0
2015-Aug-25 09:31N 41°31' W 071°21'0 0.1
2015-Aug-25 08:31N 41°31' W 071°21'0 0.1
2015-Aug-25 07:31N 41°31' W 071°21'0 0.0
2015-Aug-25 06:31N 41°31' W 071°21'0 0.1
2015-Aug-25 05:31N 41°31' W 071°21'0 0.1
2015-Aug-25 04:28N 41°31' W 071°21'0 0.0
2015-Aug-25 03:28N 41°31' W 071°21'0 0.1
2015-Aug-25 02:31N 41°31' W 071°21'0 0.0
2015-Aug-25 01:31N 41°31' W 071°21'0 0.0
2015-Aug-25 00:31N 41°31' W 071°21'0 0.0
2015-Aug-24 23:34N 41°31' W 071°21'0 0.1
2015-Aug-24 22:30N 41°31' W 071°21'0 0.1
2015-Aug-24 21:30N 41°31' W 071°21'0 0.1
2015-Aug-24 20:30N 41°31' W 071°21'0 0.0
2015-Aug-24 19:33N 41°31' W 071°21'2 2.4
2015-Aug-24 18:32N 41°29' W 071°21'10 7.9
2015-Aug-24 17:13N 41°23' W 071°10'7 9.9
2015-Aug-24 16:33N 41°26' W 071°02'43 7.0
2015-Aug-24 10:27N 42°02' W 070°30'910.4
2015-Aug-24 09:33N 42°11' W 070°34'10 9.8
2015-Aug-24 08:31N 42°18' W 070°43'9 9.2
2015-Aug-24 07:32N 42°22' W 070°54'7 6.6
2015-Aug-24 06:33N 42°22' W 071°03'0 0.0
2015-Aug-23 09:27N 42°22' W 071°03'9 6.7
2015-Aug-23 08:10N 42°23' W 070°51'41 7.3
2015-Aug-23 02:33N 41°43' W 070°39'8 8.3
2015-Aug-23 01:32N 41°35' W 070°43'8 8.5
2015-Aug-23 00:33N 41°30' W 070°52'9 8.7
2015-Aug-22 23:33N 41°26' W 071°02'9 8.9
2015-Aug-22 22:33N 41°21' W 071°12'9 9.1
2015-Aug-22 21:33N 41°18' W 071°23'9 8.8
2015-Aug-22 20:33N 41°18' W 071°35'9 8.7
2015-Aug-22 19:33N 41°16' W 071°47'8 8.1
2015-Aug-22 18:33N 41°14' W 071°57'8 7.7
2015-Aug-22 17:33N 41°14' W 072°07'8 8.5
2015-Aug-22 16:33N 41°12' W 072°18'9 9.2
2015-Aug-22 15:33N 41°09' W 072°30'9 9.2
2015-Aug-22 14:33N 41°06' W 072°41'9 9.3
2015-Aug-22 13:33N 41°04' W 072°53'9 9.4
2015-Aug-22 12:33N 41°02' W 073°05'9 9.4
2015-Aug-22 11:33N 41°01' W 073°18'9 9.3
2015-Aug-22 10:33N 40°58' W 073°30'9 8.9
2015-Aug-22 09:33N 40°54' W 073°40'8 8.2
2015-Aug-22 08:33N 40°48' W 073°47'7 7.2
2015-Aug-22 07:33N 40°46' W 073°57'8 8.5
2015-Aug-22 06:33N 40°40' W 074°03'7 7.3
2015-Aug-22 05:33N 40°37' W 074°12'4 3.9
2015-Aug-22 04:32N 40°34' W 074°14'0 0.0
2015-Aug-21 22:15N 40°33' W 074°14'6 8.3
2015-Aug-21 21:33N 40°39' W 074°11'3 0.6
2015-Aug-21 17:19N 40°38' W 074°08'5 6.8
2015-Aug-21 16:32N 40°35' W 074°13'2 0.1
2015-Aug-21 04:29N 40°34' W 074°14'0 0.1
2015-Aug-21 03:27N 40°34' W 074°14'5 5.1
2015-Aug-21 02:33N 40°38' W 074°12'9 8.7
2015-Aug-21 01:33N 40°41' W 074°01'  

Dump ship's entire track history